Observation data for Seagraves on 03/24/2019      Previous  Date  Next       Current Mesonet Observations  Soil Data  Daily Summary Page  Observations in Plain Language
KSGV 240500Z 21006KT 07/M02 A3003 RMK A01 T00701017  RH  054%=      5-min Rain = 0
KSGV 240505Z 21006KT 06/M01 A3003 RMK A01 T00641013  RH  058%=      5-min Rain = 0
KSGV 240510Z 21006KT 06/M01 A3003 RMK A01 T00631006  RH  062%=      5-min Rain = 0
KSGV 240515Z 21007KT 06/M00 A3003 RMK A01 T00621003  RH  064%=      5-min Rain = 0
KSGV 240520Z 21007KT 06/M01 A3002 RMK A01 T00631006  RH  062%=      5-min Rain = 0
KSGV 240525Z 22008KT 07/M01 A3002 RMK A01 T00671011  RH  058%=      5-min Rain = 0
KSGV 240530Z 22008KT 07/M02 A3002 RMK A01 T00721015  RH  055%=      5-min Rain = 0
KSGV 240535Z 22008KT 07/M02 A3002 RMK A01 T00731015  RH  054%=      5-min Rain = 0
KSGV 240540Z 22008KT 07/M01 A3002 RMK A01 T00731010  RH  056%=      5-min Rain = 0
KSGV 240545Z 22008KT 07/M01 A3002 RMK A01 T00731008  RH  057%=      5-min Rain = 0
KSGV 240550Z 21008KT 07/M01 A3002 RMK A01 T00741012  RH  055%=      5-min Rain = 0
KSGV 240555Z 20008KT 08/M02 A3002 RMK A01 T00751022  RH  051%=      5-min Rain = 0
KSGV 240600Z 21008KT 07/M02 A3002 RMK A01 T00741024  RH  050%=      5-min Rain = 0
KSGV 240605Z 21007KT 07/M03 A3002 RMK A01 T00741027  RH  049%=      5-min Rain = 0
KSGV 240610Z 21007KT 07/M03 A3002 RMK A01 T00711027  RH  050%=      5-min Rain = 0
KSGV 240615Z 22007KT 06/M02 A3002 RMK A01 T00641022  RH  055%=      5-min Rain = 0
KSGV 240620Z 22008KT 06/M02 A3001 RMK A01 T00601016  RH  058%=      5-min Rain = 0
KSGV 240625Z 22007KT 06/M02 A3001 RMK A01 T00611016  RH  058%=      5-min Rain = 0
KSGV 240630Z 22008KT 06/M02 A3001 RMK A01 T00641022  RH  055%=      5-min Rain = 0
KSGV 240635Z 22009KT 07/M02 A3001 RMK A01 T00651023  RH  054%=      5-min Rain = 0
KSGV 240640Z 23008KT 07/M02 A3001 RMK A01 T00651018  RH  056%=      5-min Rain = 0
KSGV 240645Z 23008KT 06/M02 A3001 RMK A01 T00641017  RH  057%=      5-min Rain = 0
KSGV 240650Z 23007KT 06/M02 A3001 RMK A01 T00621017  RH  057%=      5-min Rain = 0
KSGV 240655Z 23006KT 06/M02 A3001 RMK A01 T00621018  RH  057%=      5-min Rain = 0
KSGV 240700Z 24005KT 06/M02 A3001 RMK A01 T00601018  RH  058%=      5-min Rain = 0
KSGV 240705Z 24004KT 06/M02 A3001 RMK A01 T00581022  RH  057%=      5-min Rain = 0
KSGV 240710Z 24004KT 06/M03 A3001 RMK A01 T00571029  RH  054%=      5-min Rain = 0
KSGV 240715Z 24004KT 06/M03 A3001 RMK A01 T00601030  RH  053%=      5-min Rain = 0
KSGV 240720Z 23004KT 06/M03 A3001 RMK A01 T00631029  RH  052%=      5-min Rain = 0
KSGV 240725Z 23005KT 07/M03 A3001 RMK A01 T00661027  RH  052%=      5-min Rain = 0
KSGV 240730Z 23007KT 06/M02 A3001 RMK A01 T00621023  RH  055%=      5-min Rain = 0
KSGV 240735Z 23008KT 06/M02 A3001 RMK A01 T00631022  RH  055%=      5-min Rain = 0
KSGV 240740Z 22008KT 07/M02 A3001 RMK A01 T00671024  RH  052%=      5-min Rain = 0
KSGV 240745Z 22008KT 07/M03 A3001 RMK A01 T00681026  RH  051%=      5-min Rain = 0
KSGV 240750Z 23007KT 07/M03 A3001 RMK A01 T00681026  RH  051%=      5-min Rain = 0
KSGV 240755Z 24007KT 07/M03 A3001 RMK A01 T00671028  RH  051%=      5-min Rain = 0
KSGV 240800Z 28006KT 06/M03 A3002 RMK A01 T00631028  RH  053%=      5-min Rain = 0
KSGV 240805Z 29007KT 06/M03 A3002 RMK A01 T00591025  RH  055%=      5-min Rain = 0
KSGV 240810Z 29006KT 06/M03 A3002 RMK A01 T00591026  RH  055%=      5-min Rain = 0
KSGV 240815Z 29007KT 06/M03 A3002 RMK A01 T00571026  RH  055%=      5-min Rain = 0
KSGV 240820Z 29006KT 06/M03 A3002 RMK A01 T00581026  RH  055%=      5-min Rain = 0
KSGV 240825Z 29007KT 06/M03 A3002 RMK A01 T00551026  RH  057%=      5-min Rain = 0
KSGV 240830Z 30008KT 06/M03 A3002 RMK A01 T00561025  RH  056%=      5-min Rain = 0
KSGV 240835Z 30008KT 06/M03 A3002 RMK A01 T00611026  RH  054%=      5-min Rain = 0
KSGV 240840Z 30008KT 06/M03 A3002 RMK A01 T00621028  RH  053%=      5-min Rain = 0
KSGV 240845Z 29009KT 07/M03 A3002 RMK A01 T00651030  RH  051%=      5-min Rain = 0
KSGV 240850Z 30008KT 07/M03 A3002 RMK A01 T00651030  RH  051%=      5-min Rain = 0
KSGV 240855Z 29009KT 06/M03 A3001 RMK A01 T00621031  RH  052%=      5-min Rain = 0
KSGV 240900Z 29009KT 06/M03 A3001 RMK A01 T00631031  RH  051%=      5-min Rain = 0
KSGV 240905Z 29009KT 06/M03 A3001 RMK A01 T00611029  RH  053%=      5-min Rain = 0
KSGV 240910Z 29009KT 06/M03 A3001 RMK A01 T00611029  RH  053%=      5-min Rain = 0
KSGV 240915Z 29009KT 06/M03 A3001 RMK A01 T00611029  RH  053%=      5-min Rain = 0
KSGV 240920Z 29009KT 06/M03 A3001 RMK A01 T00621028  RH  053%=      5-min Rain = 0
KSGV 240925Z 29009KT 06/M03 A3001 RMK A01 T00621028  RH  053%=      5-min Rain = 0
KSGV 240930Z 29009KT 06/M03 A3001 RMK A01 T00611028  RH  053%=      5-min Rain = 0
KSGV 240935Z 29009KT 06/M03 A3001 RMK A01 T00611027  RH  053%=      5-min Rain = 0
KSGV 240940Z 29008KT 06/M03 A3001 RMK A01 T00601027  RH  054%=      5-min Rain = 0
KSGV 240945Z 29008KT 06/M03 A3001 RMK A01 T00591027  RH  054%=      5-min Rain = 0
KSGV 240950Z 30007KT 06/M03 A3001 RMK A01 T00581027  RH  055%=      5-min Rain = 0
KSGV 240955Z 30007KT 06/M03 A3001 RMK A01 T00571027  RH  055%=      5-min Rain = 0
KSGV 241000Z 30007KT 06/M03 A3001 RMK A01 T00551026  RH  056%=      5-min Rain = 0
KSGV 241005Z 28005KT 05/M03 A3001 RMK A01 T00541027  RH  056%=      5-min Rain = 0
KSGV 241010Z 21005KT 05/M03 A3002 RMK A01 T00501028  RH  057%=      5-min Rain = 0
KSGV 241015Z 18008KT 05/M03 A3002 RMK A01 T00531027  RH  057%=      5-min Rain = 0
KSGV 241020Z 22007KT 07/M03 A3002 RMK A01 T00661034  RH  049%=      5-min Rain = 0
KSGV 241025Z 21006KT 07/M04 A3002 RMK A01 T00691035  RH  048%=      5-min Rain = 0
KSGV 241030Z 22008KT 07/M04 A3002 RMK A01 T00681036  RH  048%=      5-min Rain = 0
KSGV 241035Z 22006KT 06/M03 A3002 RMK A01 T00641034  RH  050%=      5-min Rain = 0
KSGV 241040Z 22004KT 06/M03 A3002 RMK A01 T00591030  RH  053%=      5-min Rain = 0
KSGV 241045Z 23005KT 05/M03 A3002 RMK A01 T00541028  RH  056%=      5-min Rain = 0
KSGV 241050Z 24005KT 05/M02 A3003 RMK A01 T00511024  RH  059%=      5-min Rain = 0
KSGV 241055Z 24005KT 05/M02 A3003 RMK A01 T00481024  RH  060%=      5-min Rain = 0
KSGV 241100Z 23005KT 05/M02 A3003 RMK A01 T00451024  RH  061%=      5-min Rain = 0
KSGV 241105Z 25003KT 05/M03 A3003 RMK A01 T00451025  RH  061%=      5-min Rain = 0
KSGV 241110Z 20002KT 04/M03 A3003 RMK A01 T00441029  RH  060%=      5-min Rain = 0
KSGV 241115Z 16002KT 05/M02 A3003 RMK A01 T00471023  RH  061%=      5-min Rain = 0
KSGV 241120Z 18004KT 05/M03 A3003 RMK A01 T00481025  RH  060%=      5-min Rain = 0
KSGV 241125Z 19005KT 04/M03 A3003 RMK A01 T00441026  RH  061%=      5-min Rain = 0
KSGV 241130Z 21004KT 05/M03 A3003 RMK A01 T00481029  RH  058%=      5-min Rain = 0
KSGV 241135Z 23004KT 05/M03 A3003 RMK A01 T00521031  RH  055%=      5-min Rain = 0
KSGV 241140Z 24003KT 05/M03 A3003 RMK A01 T00521027  RH  057%=      5-min Rain = 0
KSGV 241145Z 23003KT 05/M03 A3003 RMK A01 T00511026  RH  058%=      5-min Rain = 0
KSGV 241150Z 23002KT 05/M03 A3002 RMK A01 T00501027  RH  058%=      5-min Rain = 0
KSGV 241155Z 25002KT 05/M03 A3003 RMK A01 T00511026  RH  058%=      5-min Rain = 0
KSGV 241200Z 26003KT 05/M03 A3003 RMK A01 T00521025  RH  058%=      5-min Rain = 0
KSGV 241205Z 26004KT 05/M02 A3003 RMK A01 T00511023  RH  060%=      5-min Rain = 0
KSGV 241210Z 27004KT 05/M02 A3003 RMK A01 T00481018  RH  063%=      5-min Rain = 0
KSGV 241215Z 27004KT 04/M02 A3003 RMK A01 T00431016  RH  066%=      5-min Rain = 0
KSGV 241220Z 28004KT 04/M01 A3003 RMK A01 T00371014  RH  070%=      5-min Rain = 0
KSGV 241225Z 32004KT 04/M01 A3004 RMK A01 T00371011  RH  071%=      5-min Rain = 0
KSGV 241230Z 32004KT 04/M02 A3004 RMK A01 T00411017  RH  066%=      5-min Rain = 0
KSGV 241235Z 31004KT 04/M02 A3004 RMK A01 T00411019  RH  065%=      5-min Rain = 0
KSGV 241240Z 32005KT 04/M02 A3004 RMK A01 T00411018  RH  066%=      5-min Rain = 0
KSGV 241245Z 01007KT 04/M02 A3005 RMK A01 T00411016  RH  067%=      5-min Rain = 0
KSGV 241250Z 32003KT 05/M02 A3005 RMK A01 T00541023  RH  058%=      5-min Rain = 0
KSGV 241255Z 35009KT 06/M02 A3005 RMK A01 T00641019  RH  056%=      5-min Rain = 0
KSGV 241300Z 33008KT 06/M02 A3005 RMK A01 T00581024  RH  056%=      5-min Rain = 0
KSGV 241305Z 35008KT 06/M02 A3006 RMK A01 T00581022  RH  057%=      5-min Rain = 0
KSGV 241310Z 35008KT 06/M02 A3006 RMK A01 T00601022  RH  056%=      5-min Rain = 0
KSGV 241315Z 34007KT 06/M02 A3006 RMK A01 T00621019  RH  057%=      5-min Rain = 0
KSGV 241320Z 33008KT 06/M02 A3006 RMK A01 T00581017  RH  059%=      5-min Rain = 0
KSGV 241325Z 34008KT 06/M01 A3006 RMK A01 T00621014  RH  059%=      5-min Rain = 0
KSGV 241330Z 34008KT 07/M02 A3006 RMK A01 T00691016  RH  055%=      5-min Rain = 0
KSGV 241335Z 34007KT 07/M02 A3006 RMK A01 T00721015  RH  055%=      5-min Rain = 0
KSGV 241340Z 34008KT 07/M02 A3006 RMK A01 T00741016  RH  053%=      5-min Rain = 0
KSGV 241345Z 35008KT 08/M01 A3007 RMK A01 T00791014  RH  052%=      5-min Rain = 0
KSGV 241350Z 34008KT 08/M02 A3007 RMK A01 T00781015  RH  052%=      5-min Rain = 0
KSGV 241355Z 34008KT 08/M02 A3007 RMK A01 T00761015  RH  053%=      5-min Rain = 0
KSGV 241400Z 34007KT 08/M01 A3007 RMK A01 T00771013  RH  053%=      5-min Rain = 0
KSGV 241405Z 35007KT 08/M01 A3007 RMK A01 T00801014  RH  052%=      5-min Rain = 0
KSGV 241410Z 36008KT 08/M01 A3007 RMK A01 T00841014  RH  051%=      5-min Rain = 0
KSGV 241415Z 36008KT 09/M01 A3008 RMK A01 T00851013  RH  050%=      5-min Rain = 0
KSGV 241420Z 01007KT 09/M01 A3008 RMK A01 T00901009  RH  050%=      5-min Rain = 0
KSGV 241425Z 02008KT 10/M01 A3008 RMK A01 T00951005  RH  050%=      5-min Rain = 0
KSGV 241430Z 02008KT 10/M00 A3008 RMK A01 T00971001  RH  051%=      5-min Rain = 0
KSGV 241435Z 02008KT 10/00 A3008 RMK A01 T00990002  RH  052%=      5-min Rain = 0
KSGV 241440Z 02007KT 10/01 A3008 RMK A01 T00980005  RH  053%=      5-min Rain = 0
KSGV 241445Z 01008KT 10/01 A3008 RMK A01 T01000008  RH  053%=      5-min Rain = 0
KSGV 241450Z 01008KT 11/01 A3009 RMK A01 T01050013  RH  053%=      5-min Rain = 0
KSGV 241455Z 02007KT 11/01 A3009 RMK A01 T01080013  RH  053%=      5-min Rain = 0
KSGV 241500Z 01008KT 11/01 A3009 RMK A01 T01120014  RH  052%=      5-min Rain = 0
KSGV 241505Z 01007KT 12/02 A3009 RMK A01 T01150016  RH  051%=      5-min Rain = 0
KSGV 241510Z 01007KT 12/02 A301 RMK A01 T01190019  RH  051%=      5-min Rain = 0
KSGV 241515Z 00007KT 12/02 A301 RMK A01 T01240020  RH  050%=      5-min Rain = 0
KSGV 241520Z 00007KT 13/02 A301 RMK A01 T01270020  RH  049%=      5-min Rain = 0
KSGV 241525Z 36007KT 13/02 A301 RMK A01 T01290020  RH  048%=      5-min Rain = 0
KSGV 241530Z 36007KT 13/02 A301 RMK A01 T01340020  RH  047%=      5-min Rain = 0
KSGV 241535Z 01006KT 14/02 A301 RMK A01 T01350020  RH  046%=      5-min Rain = 0
KSGV 241540Z 01006KT 14/02 A301 RMK A01 T01370020  RH  046%=      5-min Rain = 0
KSGV 241545Z 02007KT 14/02 A301 RMK A01 T01400021  RH  045%=      5-min Rain = 0
KSGV 241550Z 00006KT 14/02 A301 RMK A01 T01400020  RH  045%=      5-min Rain = 0
KSGV 241555Z 00006KT 14/02 A301 RMK A01 T01400021  RH  045%=      5-min Rain = 0
KSGV 241600Z 35006KT 14/02 A301 RMK A01 T01440019  RH  044%=      5-min Rain = 0
KSGV 241605Z 35006KT 15/02 A301 RMK A01 T01480021  RH  043%=      5-min Rain = 0
KSGV 241610Z 35005KT 15/02 A301 RMK A01 T01520020  RH  042%=      5-min Rain = 0
KSGV 241615Z 36005KT 16/02 A301 RMK A01 T01560020  RH  041%=      5-min Rain = 0
KSGV 241620Z 34006KT 16/02 A301 RMK A01 T01580022  RH  040%=      5-min Rain = 0
KSGV 241625Z 33006KT 16/02 A301 RMK A01 T01610019  RH  039%=      5-min Rain = 0
KSGV 241630Z 35005KT 16/01 A301 RMK A01 T01630013  RH  037%=      5-min Rain = 0
KSGV 241635Z 36005KT 17/02 A301 RMK A01 T01670015  RH  036%=      5-min Rain = 0
KSGV 241640Z 34005KT 17/01 A3011 RMK A01 T01680014  RH  036%=      5-min Rain = 0
KSGV 241645Z 34005KT 17/01 A3011 RMK A01 T01690007  RH  034%=      5-min Rain = 0
KSGV 241650Z 33004G9KT 18/01 A3011 RMK A01 T01760006  RH  032%=      5-min Rain = 0
KSGV 241655Z 33004KT 18/00 A3011 RMK A01 T017900-0  RH  030%=      5-min Rain = 0
KSGV 241700Z 32004KT 18/M01 A301 RMK A01 T01791008  RH  028%=      5-min Rain = 0
KSGV 241705Z 36002KT 18/M01 A3011 RMK A01 T01801005  RH  029%=      5-min Rain = 0
KSGV 241710Z 00003KT 18/M00 A3011 RMK A01 T01831002  RH  029%=      5-min Rain = 0
KSGV 241715Z 02003KT 19/00 A3011 RMK A01 T01870002  RH  029%=      5-min Rain = 0
KSGV 241720Z 35003KT 19/00 A3011 RMK A01 T01920002  RH  028%=      5-min Rain = 0
KSGV 241725Z 34003KT 19/M01 A3011 RMK A01 T01921007  RH  026%=      5-min Rain = 0
KSGV 241730Z 31001KT 19/M01 A301 RMK A01 T01931010  RH  026%=      5-min Rain = 0
KSGV 241735Z 32003KT 20/M01 A301 RMK A01 T01961008  RH  026%=      5-min Rain = 0
KSGV 241740Z 32002KT 20/M01 A301 RMK A01 T01971006  RH  026%=      5-min Rain = 0
KSGV 241745Z 32004KT 20/M01 A301 RMK A01 T01951009  RH  025%=      5-min Rain = 0
KSGV 241750Z 32002KT 20/M01 A301 RMK A01 T01991006  RH  026%=      5-min Rain = 0
KSGV 241755Z 29003KT 21/M01 A301 RMK A01 T02051007  RH  024%=      5-min Rain = 0
KSGV 241800Z 29004KT 20/M02 A301 RMK A01 T02041016  RH  023%=      5-min Rain = 0
KSGV 241805Z 26002KT 20/M01 A301 RMK A01 T02031014  RH  023%=      5-min Rain = 0
KSGV 241810Z 31004KT 21/M02 A3009 RMK A01 T02111021  RH  021%=      5-min Rain = 0
KSGV 241815Z 29004KT 21/M03 A3009 RMK A01 T02111027  RH  020%=      5-min Rain = 0
KSGV 241820Z 26004KT 21/M02 A3009 RMK A01 T02131023  RH  020%=      5-min Rain = 0
KSGV 241825Z 25005KT 21/M02 A3009 RMK A01 T02141019  RH  021%=      5-min Rain = 0
KSGV 241830Z 24004G9KT 21/M02 A3008 RMK A01 T02121020  RH  021%=      5-min Rain = 0
KSGV 241835Z 24003KT 21/M02 A3008 RMK A01 T02141016  RH  022%=      5-min Rain = 0
KSGV 241840Z 19003KT 22/M01 A3008 RMK A01 T02171011  RH  022%=      5-min Rain = 0
KSGV 241845Z 17003KT 22/M01 A3008 RMK A01 T02211006  RH  022%=      5-min Rain = 0
KSGV 241850Z 19004G9KT 23/M01 A3008 RMK A01 T02251008  RH  021%=      5-min Rain = 0
KSGV 241855Z 23005KT 23/M00 A3008 RMK A01 T02281001  RH  022%=      5-min Rain = 0
KSGV 241900Z 23004KT 22/M01 A3008 RMK A01 T02241012  RH  021%=      5-min Rain = 0
KSGV 241905Z 21003KT 23/M01 A3008 RMK A01 T02251014  RH  020%=      5-min Rain = 0
KSGV 241910Z 34002KT 22/M02 A3007 RMK A01 T02221017  RH  020%=      5-min Rain = 0
KSGV 241915Z 32003KT 23/M01 A3007 RMK A01 T02251013  RH  021%=      5-min Rain = 0
KSGV 241920Z 26005KT 23/M02 A3007 RMK A01 T02301022  RH  019%=      5-min Rain = 0
KSGV 241925Z 11001KT 23/M03 A3007 RMK A01 T02301025  RH  018%=      5-min Rain = 0
KSGV 241930Z 27003KT 23/M03 A3006 RMK A01 T02321027  RH  018%=      5-min Rain = 0
KSGV 241935Z 27006KT 24/M03 A3006 RMK A01 T02351026  RH  018%=      5-min Rain = 0
KSGV 241940Z 27004KT 24/M03 A3006 RMK A01 T02351028  RH  017%=      5-min Rain = 0
KSGV 241945Z 27010G15KT 24/M02 A3005 RMK A01 T02391023  RH  018%=      5-min Rain = 0
KSGV 241950Z 27008G13KT 24/M03 A3005 RMK A01 T02391025  RH  017%=      5-min Rain = 0
KSGV 241955Z 26009KT 24/M03 A3005 RMK A01 T02421026  RH  017%=      5-min Rain = 0
KSGV 242000Z 23009G14KT 24/M03 A3005 RMK A01 T02431025  RH  017%=      5-min Rain = 0
KSGV 242005Z 28010KT 25/M03 A3005 RMK A01 T02471026  RH  016%=      5-min Rain = 0
KSGV 242010Z 31007KT 24/M03 A3004 RMK A01 T02411030  RH  016%=      5-min Rain = 0
KSGV 242015Z 27007G12KT 25/M03 A3004 RMK A01 T02461029  RH  016%=      5-min Rain = 0
KSGV 242020Z 27009KT 24/M03 A3004 RMK A01 T02431033  RH  016%=      5-min Rain = 0
KSGV 242025Z 29010KT 25/M03 A3004 RMK A01 T02451026  RH  017%=      5-min Rain = 0
KSGV 242030Z 27004KT 24/M04 A3004 RMK A01 T02401036  RH  016%=      5-min Rain = 0
KSGV 242035Z 28006KT 24/M03 A3004 RMK A01 T02411032  RH  016%=      5-min Rain = 0
KSGV 242040Z 25008G15KT 25/M03 A3004 RMK A01 T02451031  RH  016%=      5-min Rain = 0
KSGV 242045Z 25006G16KT 24/M03 A3003 RMK A01 T02441031  RH  016%=      5-min Rain = 0
KSGV 242050Z 26009KT 25/M03 A3003 RMK A01 T02521026  RH  016%=      5-min Rain = 0
KSGV 242055Z 26009G14KT 25/M03 A3003 RMK A01 T02521029  RH  016%=      5-min Rain = 0
KSGV 242100Z 27006KT 25/M03 A3003 RMK A01 T02491033  RH  015%=      5-min Rain = 0
KSGV 242105Z 19002KT 25/M04 A3003 RMK A01 T02471036  RH  015%=      5-min Rain = 0
KSGV 242110Z 27006G13KT 25/M03 A3003 RMK A01 T02501030  RH  016%=      5-min Rain = 0
KSGV 242115Z 27004G10KT 25/M03 A3003 RMK A01 T02511029  RH  016%=      5-min Rain = 0
KSGV 242120Z 31003KT 25/M03 A3003 RMK A01 T02531030  RH  015%=      5-min Rain = 0
KSGV 242125Z 23001KT 25/M04 A3002 RMK A01 T02511038  RH  015%=      5-min Rain = 0
KSGV 242130Z 15003G9KT 25/M03 A3002 RMK A01 T02541032  RH  015%=      5-min Rain = 0
KSGV 242135Z 18006G11KT 25/M03 A3002 RMK A01 T02541029  RH  015%=      5-min Rain = 0
KSGV 242140Z 11003KT 25/M04 A3002 RMK A01 T02531035  RH  015%=      5-min Rain = 0
KSGV 242145Z 07002KT 25/M04 A3002 RMK A01 T02521039  RH  014%=      5-min Rain = 0
KSGV 242150Z 23006G12KT 26/M04 A3002 RMK A01 T02591038  RH  014%=      5-min Rain = 0
KSGV 242155Z 26008G15KT 26/M04 A3002 RMK A01 T02601040  RH  014%=      5-min Rain = 0
KSGV 242200Z 24008KT 26/M04 A3002 RMK A01 T02581043  RH  013%=      5-min Rain = 0
KSGV 242205Z 26009KT 26/M04 A3002 RMK A01 T02571039  RH  014%=      5-min Rain = 0
KSGV 242210Z 27004KT 25/M04 A3002 RMK A01 T02541043  RH  014%=      5-min Rain = 0
KSGV 242215Z 29002KT 25/M05 A3001 RMK A01 T02541045  RH  014%=      5-min Rain = 0
KSGV 242220Z 25006G11KT 26/M04 A3002 RMK A01 T02551038  RH  014%=      5-min Rain = 0
KSGV 242225Z 28009KT 26/M03 A3002 RMK A01 T02581030  RH  015%=      5-min Rain = 0
KSGV 242230Z 28007KT 26/M03 A3002 RMK A01 T02601029  RH  015%=      5-min Rain = 0
KSGV 242235Z 28011KT 26/M04 A3002 RMK A01 T02611037  RH  014%=      5-min Rain = 0
KSGV 242240Z 29007KT 26/M04 A3002 RMK A01 T02591042  RH  014%=      5-min Rain = 0
KSGV 242245Z 28006KT 26/M04 A3001 RMK A01 T02581039  RH  014%=      5-min Rain = 0
KSGV 242250Z 24009G15KT 26/M05 A3001 RMK A01 T02591050  RH  013%=      5-min Rain = 0
KSGV 242255Z 25008G13KT 26/M06 A3001 RMK A01 T02581057  RH  012%=      5-min Rain = 0
KSGV 242300Z 29006G11KT 26/M06 A3001 RMK A01 T02591059  RH  012%=      5-min Rain = 0
KSGV 242305Z 26008KT 26/M06 A3001 RMK A01 T02571060  RH  012%=      5-min Rain = 0
KSGV 242310Z 23008KT 26/M06 A3001 RMK A01 T02551063  RH  012%=      5-min Rain = 0
KSGV 242315Z 28009KT 26/M06 A3001 RMK A01 T02551058  RH  012%=      5-min Rain = 0
KSGV 242320Z 32009KT 25/M05 A3001 RMK A01 T02531052  RH  013%=      5-min Rain = 0
KSGV 242325Z 31009KT 25/M05 A3002 RMK A01 T02531052  RH  013%=      5-min Rain = 0
KSGV 242330Z 29006G11KT 25/M06 A3002 RMK A01 T02521058  RH  012%=      5-min Rain = 0
KSGV 242335Z 30008KT 25/M05 A3002 RMK A01 T02521048  RH  013%=      5-min Rain = 0
KSGV 242340Z 31007KT 25/M05 A3002 RMK A01 T02501045  RH  014%=      5-min Rain = 0
KSGV 242345Z 32006KT 25/M05 A3002 RMK A01 T02481045  RH  014%=      5-min Rain = 0
KSGV 242350Z 32005KT 25/M05 A3002 RMK A01 T02491047  RH  014%=      5-min Rain = 0
KSGV 242355Z 32005KT 25/M04 A3002 RMK A01 T02481042  RH  014%=      5-min Rain = 0
KSGV 250000Z 31006KT 25/M04 A3003 RMK A01 T02471041  RH  015%=      5-min Rain = 0
KSGV 250005Z 31008KT 25/M04 A3003 RMK A01 T02451037  RH  015%=      5-min Rain = 0
KSGV 250010Z 30008KT 24/M04 A3003 RMK A01 T02421044  RH  015%=      5-min Rain = 0
KSGV 250015Z 30006KT 24/M04 A3003 RMK A01 T02401039  RH  015%=      5-min Rain = 0
KSGV 250020Z 30005KT 24/M04 A3003 RMK A01 T02381036  RH  016%=      5-min Rain = 0
KSGV 250025Z 31005KT 24/M03 A3003 RMK A01 T02351026  RH  018%=      5-min Rain = 0
KSGV 250030Z 32003KT 23/M03 A3003 RMK A01 T02321032  RH  017%=      5-min Rain = 0
KSGV 250035Z 32003KT 23/M04 A3003 RMK A01 T02301039  RH  016%=      5-min Rain = 0
KSGV 250040Z 30004KT 23/M04 A3003 RMK A01 T02261036  RH  017%=      5-min Rain = 0
KSGV 250045Z 30003KT 22/M04 A3003 RMK A01 T02221037  RH  018%=      5-min Rain = 0
KSGV 250050Z 30003KT 22/M04 A3003 RMK A01 T02221043  RH  017%=      5-min Rain = 0
KSGV 250055Z 29002KT 22/M05 A3003 RMK A01 T02211046  RH  016%=      5-min Rain = 0
KSGV 250100Z 26002KT 22/M04 A3003 RMK A01 T02151038  RH  018%=      5-min Rain = 0
KSGV 250105Z 28002KT 21/M04 A3003 RMK A01 T02091040  RH  018%=      5-min Rain = 0
KSGV 250110Z 30002KT 20/M05 A3004 RMK A01 T02031047  RH  018%=      5-min Rain = 0
KSGV 250115Z 30001KT 19/M04 A3004 RMK A01 T01931041  RH  020%=      5-min Rain = 0
KSGV 250120Z 30000KT 19/M05 A3004 RMK A01 T01891047  RH  020%=      5-min Rain = 0
KSGV 250125Z 29001KT 19/M05 A3004 RMK A01 T01881048  RH  020%=      5-min Rain = 0
KSGV 250130Z 30001KT 19/M05 A3004 RMK A01 T01861051  RH  020%=      5-min Rain = 0
KSGV 250135Z 33002KT 18/M04 A3004 RMK A01 T01821042  RH  022%=      5-min Rain = 0
KSGV 250140Z 34003KT 17/M04 A3004 RMK A01 T01711040  RH  024%=      5-min Rain = 0
KSGV 250145Z 34003KT 16/M02 A3005 RMK A01 T01631024  RH  028%=      5-min Rain = 0
KSGV 250150Z 34004KT 16/M01 A3005 RMK A01 T01571011  RH  032%=      5-min Rain = 0
KSGV 250155Z 34005KT 15/M01 A3005 RMK A01 T01491006  RH  035%=      5-min Rain = 0
KSGV 250200Z 35004KT 15/M01 A3005 RMK A01 T01461011  RH  034%=      5-min Rain = 0
KSGV 250205Z 35004KT 14/M01 A3005 RMK A01 T01371009  RH  037%=      5-min Rain = 0
KSGV 250210Z 36003KT 14/M02 A3005 RMK A01 T01421016  RH  034%=      5-min Rain = 0
KSGV 250215Z 05002KT 15/M01 A3006 RMK A01 T01451010  RH  035%=      5-min Rain = 0
KSGV 250220Z 08003KT 15/00 A3006 RMK A01 T01460004  RH  038%=      5-min Rain = 0
KSGV 250225Z 06002KT 15/M00 A3006 RMK A01 T01451003  RH  037%=      5-min Rain = 0
KSGV 250230Z 03002KT 15/M01 A3007 RMK A01 T01451007  RH  036%=      5-min Rain = 0
KSGV 250235Z 03002KT 14/M01 A3007 RMK A01 T01411007  RH  037%=      5-min Rain = 0
KSGV 250240Z 04005KT 15/M02 A3008 RMK A01 T01451022  RH  032%=      5-min Rain = 0
KSGV 250245Z 03004KT 15/M03 A3008 RMK A01 T01471027  RH  030%=      5-min Rain = 0
KSGV 250250Z 03005KT 15/M03 A3008 RMK A01 T01501026  RH  030%=      5-min Rain = 0
KSGV 250255Z 02003KT 14/M02 A3008 RMK A01 T01431024  RH  032%=      5-min Rain = 0
KSGV 250300Z 02003KT 14/M02 A3008 RMK A01 T01371020  RH  034%=      5-min Rain = 0
KSGV 250305Z 03003KT 13/M01 A3009 RMK A01 T01281012  RH  038%=      5-min Rain = 0
KSGV 250310Z 05003KT 13/M01 A3009 RMK A01 T01261010  RH  040%=      5-min Rain = 0
KSGV 250315Z 05003KT 12/M01 A3009 RMK A01 T01241012  RH  039%=      5-min Rain = 0
KSGV 250320Z 05002KT 12/M01 A3009 RMK A01 T01181008  RH  042%=      5-min Rain = 0
KSGV 250325Z 03001KT 11/M00 A301 RMK A01 T01101004  RH  046%=      5-min Rain = 0
KSGV 250330Z 36002KT 10/M01 A301 RMK A01 T01031005  RH  048%=      5-min Rain = 0
KSGV 250335Z 36003KT 10/00 A301 RMK A01 T009800-0  RH  051%=      5-min Rain = 0
KSGV 250340Z 00001KT 10/00 A301 RMK A01 T00990000  RH  051%=      5-min Rain = 0
KSGV 250345Z 01002KT 10/M00 A301 RMK A01 T00991004  RH  049%=      5-min Rain = 0
KSGV 250350Z 02002KT 11/M01 A301 RMK A01 T01051006  RH  047%=      5-min Rain = 0
KSGV 250355Z 01002KT 10/00 A3011 RMK A01 T00960001  RH  052%=      5-min Rain = 0
KSGV 250400Z 05003KT 09/M00 A3011 RMK A01 T00921002  RH  052%=      5-min Rain = 0
KSGV 250405Z 06001KT 09/M00 A3011 RMK A01 T00921002  RH  052%=      5-min Rain = 0
KSGV 250410Z 07002KT 09/M01 A3011 RMK A01 T00941013  RH  047%=      5-min Rain = 0
KSGV 250415Z 08002KT 10/M02 A3011 RMK A01 T00991015  RH  045%=      5-min Rain = 0
KSGV 250420Z 31001KT 09/M01 A3011 RMK A01 T00901013  RH  049%=      5-min Rain = 0
KSGV 250425Z 00000KT 09/M01 A3011 RMK A01 T00901012  RH  050%=      5-min Rain = 0
KSGV 250430Z 34001KT 09/M01 A3012 RMK A01 T00881012  RH  050%=      5-min Rain = 0
KSGV 250435Z 12001KT 09/M02 A3012 RMK A01 T00921015  RH  047%=      5-min Rain = 0
KSGV 250440Z 10002KT 10/M02 A3012 RMK A01 T00951015  RH  046%=      5-min Rain = 0
KSGV 250445Z 07001KT 09/M01 A3012 RMK A01 T00931009  RH  049%=      5-min Rain = 0
KSGV 250450Z 09002KT 10/M01 A3012 RMK A01 T00961012  RH  047%=      5-min Rain = 0
KSGV 250455Z 08001KT 09/M01 A3012 RMK A01 T00921006  RH  051%=      5-min Rain = 0

Page generated in 0.009 seconds.